Time;durP1;ratioP1;P1;durP2;ratioP2;P2;SDS_P1;SDS_P2;PMS_P1;PMS_P2;Temp;Humidity;BMP_temperature;BMP_pressure;BME280_temperature;BME280_humidity;BME280_pressure;Samples;Min_cycle;Max_cycle;Signal;HPM_P1;HPM_P2
2023/05/01 00:01:52;;;;;;;10.27;8.47;;;9.00;99.40;;;;;;5013294;28;20424;-70
2023/05/01 00:04:21;;;;;;;9.70;8.10;;;9.00;99.40;;;;;;5011570;28;20476;-70
2023/05/01 00:06:50;;;;;;;10.00;8.43;;;9.00;99.50;;;;;;5013011;28;20463;-70
2023/05/01 00:09:19;;;;;;;10.73;8.97;;;8.90;99.50;;;;;;5012855;28;20439;-70
2023/05/01 00:11:47;;;;;;;11.37;8.33;;;8.90;99.50;;;;;;5011682;28;20436;-70
2023/05/01 00:14:15;;;;;;;15.33;9.47;;;8.90;99.60;;;;;;5012775;28;20509;-70
2023/05/01 00:16:44;;;;;;;11.00;8.80;;;8.80;99.60;;;;;;5013037;28;20467;-70
2023/05/01 00:19:17;;;;;;;10.73;8.27;;;8.80;99.70;;;;;;5013018;28;20522;-70
2023/05/01 00:21:46;;;;;;;10.20;8.57;;;8.80;99.70;;;;;;5013076;28;20525;-70
2023/05/01 00:24:16;;;;;;;9.40;8.37;;;8.80;99.80;;;;;;5012644;28;20498;-70
2023/05/01 00:26:45;;;;;;;11.50;8.70;;;8.80;99.80;;;;;;5013130;28;20428;-70
2023/05/01 00:29:13;;;;;;;11.57;8.77;;;8.80;99.80;;;;;;5012891;28;20489;-70
2023/05/01 00:31:42;;;;;;;9.03;7.73;;;8.70;99.80;;;;;;5011573;28;20452;-70
2023/05/01 00:34:10;;;;;;;9.50;8.43;;;8.70;99.80;;;;;;5013243;28;20463;-70
2023/05/01 00:36:38;;;;;;;11.03;7.77;;;8.60;99.80;;;;;;5014977;28;20914;-70
2023/05/01 00:39:07;;;;;;;9.50;8.00;;;8.60;99.80;;;;;;5016415;28;20451;-70
2023/05/01 00:41:36;;;;;;;12.97;8.10;;;8.60;99.80;;;;;;5016329;28;20443;-70
2023/05/01 00:44:05;;;;;;;8.93;7.93;;;8.60;99.80;;;;;;5014855;28;20559;-70
2023/05/01 00:46:34;;;;;;;9.63;8.70;;;8.50;99.80;;;;;;5014902;28;20865;-70
2023/05/01 00:49:03;;;;;;;11.20;8.93;;;8.50;99.80;;;;;;5014750;28;20460;-70
2023/05/01 00:51:31;;;;;;;11.60;9.50;;;8.40;99.80;;;;;;5015028;28;20447;-70
2023/05/01 00:54:00;;;;;;;9.80;8.80;;;8.40;99.80;;;;;;5016648;28;20459;-70
2023/05/01 00:56:28;;;;;;;10.77;9.20;;;8.40;99.80;;;;;;5016002;28;20481;-70
2023/05/01 00:58:59;;;;;;;10.10;9.03;;;8.30;99.80;;;;;;5014673;28;20454;-70
2023/05/01 01:01:28;;;;;;;9.90;8.23;;;8.30;99.80;;;;;;5016503;28;20474;-70
2023/05/01 01:03:56;;;;;;;11.33;8.40;;;8.30;99.80;;;;;;5015795;28;20451;-70
2023/05/01 01:06:33;;;;;;;9.77;8.50;;;8.20;99.80;;;;;;5014596;28;20444;-70
2023/05/01 01:09:12;;;;;;;9.20;8.00;;;8.20;99.90;;;;;;5014565;28;20945;-70
2023/05/01 01:11:50;;;;;;;11.10;8.40;;;8.20;99.90;;;;;;5016198;28;20424;-70
2023/05/01 01:14:26;;;;;;;10.63;9.10;;;8.10;99.90;;;;;;5015554;28;20455;-70
2023/05/01 01:16:59;;;;;;;10.10;9.00;;;8.10;99.90;;;;;;5014514;28;20463;-70
2023/05/01 01:20:05;;;;;;;11.27;9.03;;;8.00;99.90;;;;;;5015863;28;20531;-71
2023/05/01 01:22:36;;;;;;;9.90;8.90;;;8.00;99.90;;;;;;4990799;28;20459;-70
2023/05/01 01:25:29;;;;;;;9.33;8.40;;;8.00;99.90;;;;;;5016861;28;20476;-70
2023/05/01 01:28:24;;;;;;;11.70;9.53;;;7.90;99.90;;;;;;5018135;28;20450;-70
2023/05/01 01:31:12;;;;;;;8.73;7.83;;;7.90;99.90;;;;;;5015650;28;20448;-70
2023/05/01 01:34:03;;;;;;;11.30;8.70;;;7.90;99.90;;;;;;5015233;28;20478;-70
2023/05/01 01:36:49;;;;;;;10.13;9.13;;;7.80;99.90;;;;;;5015702;28;20462;-70
2023/05/01 01:39:26;;;;;;;12.90;8.67;;;7.80;99.90;;;;;;5014573;28;20450;-70
2023/05/01 01:41:58;;;;;;;11.10;8.93;;;7.70;99.90;;;;;;5016033;28;20423;-70
2023/05/01 01:44:33;;;;;;;9.77;8.60;;;7.70;99.90;;;;;;5014155;28;20982;-70
2023/05/01 01:47:05;;;;;;;15.80;9.27;;;7.70;99.90;;;;;;5015801;28;20431;-70
2023/05/01 01:49:40;;;;;;;10.90;9.77;;;7.70;99.90;;;;;;5014009;28;20498;-70
2023/05/01 01:52:10;;;;;;;12.20;8.70;;;7.60;99.90;;;;;;5013729;28;20436;-70
2023/05/01 01:54:52;;;;;;;11.00;8.83;;;7.60;99.90;;;;;;5013616;28;20838;-70
2023/05/01 01:57:22;;;;;;;9.40;8.40;;;7.60;99.90;;;;;;5014184;28;20918;-70
2023/05/01 01:59:51;;;;;;;13.83;9.80;;;7.60;99.90;;;;;;5013536;28;20954;-71
2023/05/01 02:02:20;;;;;;;11.27;8.77;;;7.60;99.90;;;;;;5013789;28;20445;-70
2023/05/01 02:04:52;;;;;;;8.73;7.83;;;7.50;99.90;;;;;;5013297;28;20524;-70
2023/05/01 02:07:23;;;;;;;10.97;8.80;;;7.50;99.90;;;;;;5013454;28;20455;-70
2023/05/01 02:09:53;;;;;;;10.87;8.03;;;7.50;99.90;;;;;;5013242;28;20452;-70
2023/05/01 02:12:23;;;;;;;9.73;8.43;;;7.40;99.90;;;;;;5013343;28;20450;-69
2023/05/01 02:14:53;;;;;;;10.07;8.63;;;7.40;99.90;;;;;;5013124;28;20481;-70
2023/05/01 02:17:22;;;;;;;9.63;7.90;;;7.40;99.90;;;;;;5014514;28;20468;-70
2023/05/01 02:19:53;;;;;;;10.30;8.60;;;7.40;99.90;;;;;;5013091;28;20459;-70
2023/05/01 02:22:24;;;;;;;9.27;8.37;;;7.40;99.90;;;;;;5013287;28;20452;-70
2023/05/01 02:24:56;;;;;;;9.30;8.40;;;7.30;99.90;;;;;;5014373;28;20483;-71
2023/05/01 02:27:29;;;;;;;12.80;9.57;;;7.30;99.90;;;;;;5014253;28;20444;-70
2023/05/01 02:29:57;;;;;;;12.67;8.67;;;7.30;99.90;;;;;;5014450;28;20419;-70
2023/05/01 02:32:27;;;;;;;10.67;8.33;;;7.30;99.90;;;;;;5012821;28;20874;-70
2023/05/01 02:34:57;;;;;;;9.87;8.47;;;7.30;99.90;;;;;;5012682;28;20477;-70
2023/05/01 02:37:25;;;;;;;9.73;7.70;;;7.30;99.90;;;;;;5014036;28;20527;-70
2023/05/01 02:39:54;;;;;;;11.27;8.70;;;7.20;99.90;;;;;;5012699;28;20842;-70
2023/05/01 02:42:26;;;;;;;11.47;9.37;;;7.20;99.90;;;;;;5012676;28;20482;-70
2023/05/01 02:44:57;;;;;;;12.60;8.77;;;7.20;99.90;;;;;;5012594;28;20837;-70
2023/05/01 02:47:28;;;;;;;8.93;8.03;;;7.20;99.90;;;;;;5012548;28;20512;-70
2023/05/01 02:50:00;;;;;;;10.67;9.57;;;7.10;99.90;;;;;;5014239;28;20783;-70
2023/05/01 02:52:29;;;;;;;10.40;8.37;;;7.10;99.90;;;;;;5012486;28;20474;-70
2023/05/01 02:55:15;;;;;;;8.73;7.73;;;7.10;99.90;;;;;;5012352;28;20990;-70
2023/05/01 02:57:43;;;;;;;12.30;8.40;;;7.00;99.90;;;;;;5013201;28;20467;-70
2023/05/01 03:00:12;;;;;;;9.43;8.00;;;7.00;99.90;;;;;;5012414;28;20801;-70
2023/05/01 03:02:41;;;;;;;9.40;7.33;;;7.00;99.90;;;;;;5012318;28;20459;-70
2023/05/01 03:05:11;;;;;;;10.80;7.77;;;7.00;99.90;;;;;;5013621;28;20579;-70
2023/05/01 03:07:39;;;;;;;12.77;8.10;;;7.00;99.90;;;;;;5015464;28;20447;-70
2023/05/01 03:10:08;;;;;;;9.00;7.10;;;6.90;99.90;;;;;;5013286;28;20458;-70
2023/05/01 03:12:36;;;;;;;8.07;7.10;;;7.00;99.90;;;;;;5014384;28;20474;-70
2023/05/01 03:15:04;;;;;;;9.60;7.77;;;6.90;99.90;;;;;;5014139;28;21046;-70
2023/05/01 03:17:33;;;;;;;7.73;6.90;;;6.90;99.90;;;;;;5013465;28;20474;-70
2023/05/01 03:20:01;;;;;;;9.00;7.70;;;6.90;99.90;;;;;;5012129;28;20449;-70
2023/05/01 03:22:32;;;;;;;8.33;7.47;;;6.90;99.90;;;;;;5012069;28;20441;-70
2023/05/01 03:25:00;;;;;;;9.73;8.37;;;6.90;99.90;;;;;;5012061;28;20468;-70
2023/05/01 03:27:29;;;;;;;8.47;7.50;;;6.90;99.90;;;;;;5012007;28;20444;-70
2023/05/01 03:29:57;;;;;;;8.97;7.17;;;6.80;99.90;;;;;;5012448;28;20440;-70
2023/05/01 03:32:27;;;;;;;7.97;7.17;;;6.80;99.90;;;;;;5011971;28;20462;-70
2023/05/01 03:34:56;;;;;;;9.47;7.73;;;6.80;99.90;;;;;;5012082;28;20471;-70
2023/05/01 03:37:25;;;;;;;9.57;7.63;;;6.80;99.90;;;;;;5013321;28;20499;-70
2023/05/01 03:39:54;;;;;;;10.60;7.80;;;6.80;99.90;;;;;;5011879;28;20551;-70
2023/05/01 03:42:49;;;;;;;10.20;8.33;;;6.80;99.90;;;;;;5004962;28;20472;-70
2023/05/01 03:45:21;;;;;;;11.70;9.10;;;6.80;99.90;;;;;;5011673;28;20470;-70
2023/05/01 03:47:49;;;;;;;11.13;8.50;;;6.70;99.90;;;;;;5011684;28;20509;-70
2023/05/01 03:50:18;;;;;;;9.97;8.17;;;6.70;99.90;;;;;;5012224;28;20967;-70
2023/05/01 03:52:48;;;;;;;11.80;8.13;;;6.70;99.90;;;;;;5011824;28;20456;-70
2023/05/01 03:55:18;;;;;;;10.93;8.70;;;6.60;99.90;;;;;;5011613;28;20463;-70
2023/05/01 03:57:47;;;;;;;13.10;8.40;;;6.60;99.90;;;;;;5011582;28;20988;-71
2023/05/01 04:00:16;;;;;;;12.50;8.43;;;6.60;99.90;;;;;;5012352;28;20452;-70
2023/05/01 04:02:47;;;;;;;11.70;8.40;;;6.60;99.90;;;;;;5012133;28;20510;-70
2023/05/01 04:05:20;;;;;;;8.90;7.33;;;6.60;99.90;;;;;;5011587;28;20479;-70
2023/05/01 04:07:54;;;;;;;9.93;7.83;;;6.50;99.90;;;;;;5011587;28;20490;-70
2023/05/01 04:10:24;;;;;;;15.50;7.87;;;6.50;99.90;;;;;;5013334;28;20802;-70
2023/05/01 04:13:00;;;;;;;9.30;7.40;;;6.50;99.90;;;;;;5015502;28;20447;-70
2023/05/01 04:15:28;;;;;;;10.50;7.83;;;6.50;99.90;;;;;;5017200;28;20440;-70
2023/05/01 04:17:57;;;;;;;9.83;8.20;;;6.50;99.90;;;;;;5015359;28;20984;-70
2023/05/01 04:20:25;;;;;;;10.03;8.40;;;6.50;99.90;;;;;;5015284;28;20559;-70
2023/05/01 04:22:53;;;;;;;10.40;7.40;;;6.50;99.90;;;;;;5015217;28;21028;-70
2023/05/01 04:25:23;;;;;;;9.87;7.80;;;6.50;99.90;;;;;;5015158;28;20470;-70
2023/05/01 04:27:56;;;;;;;9.87;7.23;;;6.50;99.90;;;;;;5015857;28;20444;-70
2023/05/01 04:30:24;;;;;;;11.37;8.70;;;6.50;99.90;;;;;;5015144;28;20447;-70
2023/05/01 04:32:52;;;;;;;10.27;8.43;;;6.50;99.90;;;;;;5015113;28;20459;-70
2023/05/01 04:35:21;;;;;;;13.73;8.33;;;6.50;99.90;;;;;;5017314;28;20461;-70
2023/05/01 04:37:50;;;;;;;9.17;8.23;;;6.50;99.90;;;;;;5014997;28;20469;-70
2023/05/01 04:40:18;;;;;;;11.90;8.80;;;6.50;99.90;;;;;;5015030;28;20446;-70
2023/05/01 04:42:47;;;;;;;10.13;8.87;;;6.50;99.90;;;;;;5014861;28;20468;-70
2023/05/01 04:45:15;;;;;;;14.03;10.03;;;6.50;99.90;;;;;;5014853;28;20468;-70
2023/05/01 04:47:43;;;;;;;10.37;8.63;;;6.50;99.90;;;;;;5014572;28;20457;-70
2023/05/01 04:50:12;;;;;;;13.03;10.80;;;6.60;99.90;;;;;;5014860;28;20439;-70
2023/05/01 04:52:40;;;;;;;13.03;11.40;;;6.60;99.90;;;;;;5014828;28;20441;-70
2023/05/01 04:55:10;;;;;;;14.10;11.80;;;6.60;99.90;;;;;;5014928;28;20479;-70
2023/05/01 04:57:47;;;;;;;12.30;11.00;;;6.60;99.90;;;;;;5014909;28;20471;-70
2023/05/01 05:00:17;;;;;;;10.80;8.10;;;6.60;99.90;;;;;;5014670;28;20451;-70
2023/05/01 05:02:53;;;;;;;12.23;10.03;;;6.70;99.90;;;;;;5015225;28;20839;-70
2023/05/01 05:05:21;;;;;;;10.90;8.97;;;6.70;99.90;;;;;;5014386;28;20515;-70
2023/05/01 05:07:50;;;;;;;13.47;9.83;;;6.70;99.90;;;;;;5014609;28;20524;-70
2023/05/01 05:10:24;;;;;;;11.47;9.53;;;6.70;99.90;;;;;;5016052;28;20431;-70
2023/05/01 05:13:09;;;;;;;9.43;7.63;;;6.70;99.90;;;;;;5014698;28;20458;-70
2023/05/01 05:15:39;;;;;;;10.60;9.07;;;6.80;99.90;;;;;;5014394;28;20540;-70
2023/05/01 05:18:09;;;;;;;8.97;8.03;;;6.80;99.90;;;;;;5015466;28;20465;-70
2023/05/01 05:20:41;;;;;;;10.60;7.90;;;6.80;99.90;;;;;;5013994;28;20540;-70
2023/05/01 05:23:09;;;;;;;12.23;9.67;;;6.90;99.90;;;;;;5014741;28;20785;-70
2023/05/01 05:25:37;;;;;;;13.23;11.57;;;6.90;99.90;;;;;;5014167;28;20442;-70
2023/05/01 05:28:05;;;;;;;17.60;14.70;;;6.90;99.90;;;;;;5015405;28;20851;-70
2023/05/01 05:30:35;;;;;;;14.83;10.90;;;7.00;99.90;;;;;;5014179;28;20442;-71
2023/05/01 05:33:08;;;;;;;10.10;8.47;;;7.00;99.90;;;;;;5014053;28;20458;-71
2023/05/01 05:35:36;;;;;;;11.60;8.07;;;7.10;99.90;;;;;;5014311;28;20480;-70
2023/05/01 05:38:05;;;;;;;12.50;9.67;;;7.10;99.90;;;;;;5014229;28;20485;-70
2023/05/01 05:40:36;;;;;;;11.80;8.60;;;7.20;99.90;;;;;;5014190;28;20840;-71
2023/05/01 05:43:04;;;;;;;10.40;8.83;;;7.20;99.90;;;;;;5013888;28;20601;-70
2023/05/01 05:45:35;;;;;;;11.67;8.77;;;7.30;99.90;;;;;;5013903;28;20505;-70
2023/05/01 05:48:04;;;;;;;10.20;8.40;;;7.40;99.90;;;;;;5013742;28;20541;-70
2023/05/01 05:50:35;;;;;;;9.00;7.60;;;7.50;99.90;;;;;;5014087;28;20455;-70
2023/05/01 05:53:04;;;;;;;10.70;8.30;;;7.60;99.90;;;;;;5013578;28;20501;-70
2023/05/01 05:55:32;;;;;;;11.50;8.30;;;7.70;99.90;;;;;;5013652;28;20850;-70
2023/05/01 05:58:05;;;;;;;8.90;7.70;;;7.80;99.90;;;;;;5013622;28;20472;-70
2023/05/01 06:00:35;;;;;;;8.03;7.20;;;8.00;99.90;;;;;;5013620;28;21035;-70
2023/05/01 06:03:06;;;;;;;11.97;8.20;;;8.20;99.90;;;;;;5013510;28;20464;-70
2023/05/01 06:05:35;;;;;;;10.60;8.30;;;8.40;99.90;;;;;;5013428;28;20444;-70
2023/05/01 06:08:04;;;;;;;12.20;8.50;;;8.60;99.90;;;;;;5014782;28;20851;-70
2023/05/01 06:10:32;;;;;;;11.13;7.57;;;8.80;99.90;;;;;;5013329;28;20444;-70
2023/05/01 06:13:00;;;;;;;10.97;8.40;;;9.00;99.90;;;;;;5013206;28;20440;-70
2023/05/01 06:15:45;;;;;;;8.73;7.47;;;9.20;99.90;;;;;;5013375;28;20450;-70
2023/05/01 06:18:14;;;;;;;12.13;7.40;;;9.40;99.90;;;;;;5014110;28;20468;-70
2023/05/01 06:20:42;;;;;;;9.80;7.67;;;9.50;99.90;;;;;;5013356;28;20498;-70
2023/05/01 06:23:12;;;;;;;10.17;7.33;;;9.70;99.90;;;;;;5013228;28;20452;-70
2023/05/01 06:25:47;;;;;;;7.73;6.90;;;9.90;99.90;;;;;;5013394;28;20451;-70
2023/05/01 06:28:16;;;;;;;7.70;6.40;;;10.10;99.90;;;;;;5014470;28;20436;-70
2023/05/01 06:30:45;;;;;;;8.90;7.17;;;10.20;99.90;;;;;;5014533;28;20926;-71
2023/05/01 06:33:14;;;;;;;11.97;7.30;;;10.40;99.90;;;;;;5012546;28;20455;-71
2023/05/01 06:35:45;;;;;;;13.10;8.00;;;10.50;99.90;;;;;;5013423;28;20448;-71
2023/05/01 06:38:14;;;;;;;8.73;7.23;;;10.70;99.90;;;;;;5012998;28;20462;-71
2023/05/01 06:40:45;;;;;;;9.80;6.87;;;10.80;99.90;;;;;;5012795;28;20531;-71
2023/05/01 06:43:14;;;;;;;8.67;7.33;;;10.90;99.90;;;;;;5012896;28;20455;-71
2023/05/01 06:45:42;;;;;;;9.60;7.07;;;11.00;99.90;;;;;;5012846;28;20822;-71
2023/05/01 06:48:11;;;;;;;7.13;6.43;;;11.10;99.90;;;;;;5012695;28;20987;-71
2023/05/01 06:50:39;;;;;;;8.97;6.50;;;11.20;99.90;;;;;;5014194;28;20432;-71
2023/05/01 06:53:07;;;;;;;12.73;7.33;;;11.30;99.90;;;;;;5012669;28;20509;-70
2023/05/01 06:55:36;;;;;;;9.93;7.23;;;11.40;99.90;;;;;;5012906;28;20444;-71
2023/05/01 06:58:05;;;;;;;8.90;6.90;;;11.50;99.90;;;;;;5017413;28;20459;-71
2023/05/01 07:00:49;;;;;;;8.30;6.53;;;11.60;99.90;;;;;;5016087;28;20538;-71
2023/05/01 07:03:18;;;;;;;9.80;7.03;;;11.80;99.90;;;;;;5015657;28;20478;-70
2023/05/01 07:05:47;;;;;;;11.10;6.97;;;11.90;99.90;;;;;;5017277;28;21005;-70
2023/05/01 07:08:15;;;;;;;8.97;6.70;;;12.10;99.90;;;;;;5016830;28;20435;-71
2023/05/01 07:10:43;;;;;;;8.10;7.10;;;12.20;99.90;;;;;;5018407;28;20443;-70
2023/05/01 07:13:11;;;;;;;7.90;6.50;;;12.30;99.90;;;;;;5017140;28;20498;-70
2023/05/01 07:15:39;;;;;;;9.20;7.23;;;12.40;99.90;;;;;;5020988;28;20471;-70
2023/05/01 07:18:07;;;;;;;10.80;7.10;;;12.50;99.90;;;;;;5020389;28;20440;-71
2023/05/01 07:20:37;;;;;;;8.73;6.37;;;12.60;99.90;;;;;;5019249;28;20471;-71
2023/05/01 07:23:05;;;;;;;8.47;6.57;;;12.80;99.90;;;;;;5020004;28;20439;-71
2023/05/01 07:25:36;;;;;;;8.07;6.53;;;12.90;99.90;;;;;;5018951;28;20443;-71
2023/05/01 07:28:04;;;;;;;8.80;6.20;;;13.00;99.90;;;;;;5014592;28;20462;-70
2023/05/01 07:30:33;;;;;;;7.30;6.13;;;13.20;99.90;;;;;;5015610;28;20464;-70
2023/05/01 07:33:01;;;;;;;10.30;6.73;;;13.50;99.90;;;;;;5015101;28;20436;-71
2023/05/01 07:35:29;;;;;;;9.33;6.30;;;13.70;99.90;;;;;;5015973;28;20444;-70
2023/05/01 07:37:58;;;;;;;8.80;5.90;;;14.00;99.90;;;;;;5017066;28;21068;-70
2023/05/01 07:40:26;;;;;;;7.70;6.40;;;14.20;99.90;;;;;;5019211;28;20476;-71
2023/05/01 07:42:54;;;;;;;8.10;6.17;;;14.50;99.90;;;;;;5017329;28;20450;-71
2023/05/01 07:45:22;;;;;;;8.70;6.20;;;14.70;99.70;;;;;;5019027;28;20499;-71
2023/05/01 07:47:51;;;;;;;8.60;6.17;;;14.80;99.50;;;;;;5016971;28;20447;-71
2023/05/01 07:50:19;;;;;;;7.90;6.50;;;15.00;99.60;;;;;;5013412;28;20439;-71
2023/05/01 07:52:47;;;;;;;10.57;6.00;;;15.20;99.50;;;;;;5013695;28;20994;-71
2023/05/01 07:55:18;;;;;;;8.63;6.30;;;15.30;99.40;;;;;;5012162;28;20476;-71
2023/05/01 07:57:46;;;;;;;9.93;6.13;;;15.50;99.30;;;;;;5013268;28;20419;-71
2023/05/01 08:00:15;;;;;;;8.40;6.30;;;15.60;99.50;;;;;;5013053;28;20566;-71
2023/05/01 08:02:43;;;;;;;8.00;6.87;;;15.80;99.30;;;;;;5013428;28;20802;-71
2023/05/01 08:05:11;;;;;;;7.63;6.13;;;15.90;99.10;;;;;;5013165;28;20464;-71
2023/05/01 08:07:39;;;;;;;9.43;6.37;;;16.00;98.90;;;;;;5013155;28;20438;-71
2023/05/01 08:10:08;;;;;;;9.23;6.13;;;16.10;98.80;;;;;;5013352;28;20436;-71
2023/05/01 08:12:38;;;;;;;9.00;5.73;;;16.20;98.70;;;;;;5013188;28;20443;-71
2023/05/01 08:15:07;;;;;;;7.13;5.70;;;16.30;98.50;;;;;;5013041;28;20486;-70
2023/05/01 08:17:35;;;;;;;7.97;5.37;;;16.30;98.40;;;;;;5013117;28;20970;-71
2023/05/01 08:20:04;;;;;;;7.53;5.33;;;16.40;98.40;;;;;;5011770;28;20457;-71
2023/05/01 08:22:32;;;;;;;8.60;5.30;;;16.50;98.30;;;;;;5013039;28;20466;-71
2023/05/01 08:25:00;;;;;;;8.27;5.80;;;16.60;98.20;;;;;;5012750;28;20463;-71
2023/05/01 08:27:28;;;;;;;7.07;4.90;;;16.70;98.10;;;;;;5013247;28;20444;-71
2023/05/01 08:29:57;;;;;;;7.40;4.83;;;16.80;98.00;;;;;;5012879;28;20419;-71
2023/05/01 08:32:26;;;;;;;6.10;4.80;;;16.90;97.90;;;;;;5013229;28;20821;-71
2023/05/01 08:34:54;;;;;;;8.17;4.80;;;17.00;97.70;;;;;;5013504;28;20434;-71
2023/05/01 08:37:22;;;;;;;6.80;5.23;;;17.10;97.50;;;;;;5012909;28;20442;-71
2023/05/01 08:39:50;;;;;;;6.70;5.27;;;17.10;97.50;;;;;;5012753;28;20467;-71
2023/05/01 08:42:19;;;;;;;8.30;5.90;;;17.20;97.40;;;;;;5012910;28;20440;-71
2023/05/01 08:44:49;;;;;;;8.97;5.40;;;17.30;97.30;;;;;;5012682;28;20434;-71
2023/05/01 08:47:19;;;;;;;5.53;4.93;;;17.40;97.20;;;;;;5013065;28;20731;-71
2023/05/01 08:49:50;;;;;;;7.77;5.17;;;17.60;97.10;;;;;;5012987;28;20442;-71
2023/05/01 08:52:22;;;;;;;7.57;6.33;;;17.70;97.30;;;;;;5012948;28;20432;-71
2023/05/01 08:54:53;;;;;;;5.90;4.60;;;17.80;96.80;;;;;;5012777;28;20455;-71
2023/05/01 08:57:21;;;;;;;8.77;5.67;;;17.80;96.80;;;;;;5014466;28;20446;-71
2023/05/01 08:59:52;;;;;;;7.70;4.73;;;17.90;96.80;;;;;;5016449;28;20801;-71
2023/05/01 09:02:23;;;;;;;8.50;5.07;;;17.90;96.70;;;;;;5016298;28;20447;-71
2023/05/01 09:04:52;;;;;;;6.80;5.43;;;18.00;96.90;;;;;;5015971;28;20459;-71
2023/05/01 09:07:20;;;;;;;10.23;7.23;;;18.00;96.40;;;;;;5016362;28;20952;-71
2023/05/01 09:09:48;;;;;;;11.87;10.63;;;18.10;96.30;;;;;;5015875;28;20984;-72
2023/05/01 09:12:22;;;;;;;7.20;6.37;;;18.10;96.30;;;;;;5015872;28;20746;-71
2023/05/01 09:14:51;;;;;;;10.13;5.77;;;18.10;96.10;;;;;;5016198;28;20431;-71
2023/05/01 09:17:22;;;;;;;8.30;6.10;;;18.10;96.10;;;;;;5015869;28;20486;-71
2023/05/01 09:19:51;;;;;;;8.10;6.40;;;18.20;96.10;;;;;;5014349;28;20476;-71
2023/05/01 09:22:20;;;;;;;7.40;6.17;;;18.20;95.80;;;;;;5015663;28;20851;-71
2023/05/01 09:24:48;;;;;;;9.07;6.03;;;18.20;95.80;;;;;;5016034;28;20439;-71
2023/05/01 09:27:16;;;;;;;7.30;5.47;;;18.30;95.80;;;;;;5015890;28;20422;-71
2023/05/01 09:29:46;;;;;;;6.63;4.70;;;18.40;95.60;;;;;;5016228;28;20455;-71
2023/05/01 09:32:15;;;;;;;8.17;5.70;;;18.40;95.50;;;;;;5021697;28;20492;-72
2023/05/01 09:34:45;;;;;;;10.23;6.83;;;18.40;95.10;;;;;;5021276;28;20441;-72
2023/05/01 09:37:26;;;;;;;6.70;5.20;;;18.40;95.10;;;;;;5016903;28;20502;-71
2023/05/01 09:40:05;;;;;;;6.33;4.33;;;18.50;94.80;;;;;;5019596;28;20936;-71
2023/05/01 09:42:34;;;;;;;6.17;4.00;;;18.50;94.70;;;;;;5017946;28;20428;-71
2023/05/01 09:45:04;;;;;;;8.23;3.70;;;18.60;94.70;;;;;;5016292;28;20995;-71
2023/05/01 09:47:33;;;;;;;6.60;4.43;;;18.60;94.60;;;;;;5016714;28;20461;-72
2023/05/01 09:50:04;;;;;;;6.13;4.00;;;18.70;94.50;;;;;;5016330;28;20419;-72
2023/05/01 09:52:32;;;;;;;8.20;6.20;;;18.80;94.50;;;;;;5016608;28;20400;-71
2023/05/01 09:55:19;;;;;;;7.60;4.60;;;18.80;94.50;;;;;;5014640;28;20499;-71
2023/05/01 09:57:48;;;;;;;6.07;4.03;;;18.90;94.20;;;;;;5016101;28;20883;-71
2023/05/01 10:00:19;;;;;;;7.57;4.33;;;19.00;94.20;;;;;;5015388;28;20541;-71
2023/05/01 10:02:49;;;;;;;5.67;4.07;;;19.10;94.00;;;;;;5016106;28;20917;-71
2023/05/01 10:05:19;;;;;;;5.83;4.07;;;19.10;94.00;;;;;;5015765;28;20955;-71
2023/05/01 10:07:58;;;;;;;6.37;3.90;;;19.20;93.90;;;;;;5014359;28;20938;-71
2023/05/01 10:10:27;;;;;;;7.60;4.80;;;19.30;93.70;;;;;;5014962;28;20436;-71
2023/05/01 10:12:55;;;;;;;4.70;3.67;;;19.30;93.60;;;;;;5014889;28;20478;-71
2023/05/01 10:15:35;;;;;;;6.73;4.37;;;19.30;93.40;;;;;;5014955;28;20471;-71
2023/05/01 10:18:04;;;;;;;6.30;4.40;;;19.30;93.50;;;;;;5013481;28;20443;-71
2023/05/01 10:20:34;;;;;;;8.43;4.03;;;19.30;93.50;;;;;;5014904;28;20467;-71
2023/05/01 10:23:03;;;;;;;6.60;4.23;;;19.40;93.40;;;;;;5014615;28;20436;-71
2023/05/01 10:25:32;;;;;;;7.97;4.10;;;19.40;93.20;;;;;;5014612;28;20927;-71
2023/05/01 10:28:03;;;;;;;8.07;4.13;;;19.50;93.10;;;;;;5013348;28;20458;-71
2023/05/01 10:30:32;;;;;;;5.37;3.53;;;19.50;92.80;;;;;;5014650;28;20515;-71
2023/05/01 10:33:00;;;;;;;5.40;4.03;;;19.50;92.80;;;;;;5014555;28;20457;-71
2023/05/01 10:35:33;;;;;;;7.00;4.80;;;19.60;92.80;;;;;;5014462;28;20440;-71
2023/05/01 10:38:06;;;;;;;5.83;4.47;;;19.70;92.80;;;;;;5014815;28;20891;-71
2023/05/01 10:40:49;;;;;;;6.70;3.93;;;19.70;92.90;;;;;;5014168;28;20482;-71
2023/05/01 10:43:24;;;;;;;5.77;3.87;;;19.80;92.20;;;;;;5011301;28;20452;-71
2023/05/01 10:45:54;;;;;;;6.17;4.20;;;19.90;92.30;;;;;;5012891;28;20449;-71
2023/05/01 10:48:53;;;;;;;5.23;3.33;;;19.90;92.30;;;;;;5014016;28;20978;-71
2023/05/01 10:51:22;;;;;;;6.03;3.47;;;20.10;92.10;;;;;;5014020;28;21020;-71
2023/05/01 10:54:26;;;;;;;7.23;3.87;;;20.10;92.00;;;;;;5014127;28;20811;-71
2023/05/01 10:56:58;;;;;;;7.20;4.10;;;20.20;91.80;;;;;;5014258;28;20431;-71
2023/05/01 10:59:27;;;;;;;6.87;4.10;;;20.20;91.60;;;;;;5014292;28;20516;-71
2023/05/01 11:01:55;;;;;;;5.00;3.30;;;20.20;91.40;;;;;;5014068;28;20478;-71
2023/05/01 11:04:52;;;;;;;5.87;3.43;;;20.20;91.40;;;;;;5013790;28;20562;-71
2023/05/01 11:07:22;;;;;;;6.17;3.80;;;20.20;91.40;;;;;;5013855;28;20482;-71
2023/05/01 11:09:54;;;;;;;7.73;4.17;;;20.30;91.20;;;;;;5013686;28;20539;-71
2023/05/01 11:12:53;;;;;;;6.67;3.50;;;20.30;91.10;;;;;;5012536;28;20904;-71
2023/05/01 11:15:29;;;;;;;5.63;3.70;;;20.30;91.20;;;;;;4953288;28;20470;-71
2023/05/01 11:17:58;;;;;;;5.13;3.47;;;20.30;91.20;;;;;;4999681;28;20451;-71
2023/05/01 11:20:53;;;;;;;5.00;3.27;;;20.40;91.10;;;;;;5013810;28;20439;-71
2023/05/01 11:23:24;;;;;;;4.40;2.90;;;20.40;91.20;;;;;;5013779;28;20994;-73
2023/05/01 11:26:07;;;;;;;7.47;3.50;;;20.50;91.20;;;;;;5013699;28;20899;-71
2023/05/01 11:28:38;;;;;;;5.73;2.90;;;20.50;91.00;;;;;;5013428;28;20435;-71
2023/05/01 11:31:06;;;;;;;7.13;3.13;;;20.60;91.10;;;;;;5012039;28;20443;-71
2023/05/01 11:33:34;;;;;;;4.87;2.50;;;20.60;91.00;;;;;;5013224;28;20455;-71
2023/05/01 11:36:03;;;;;;;5.30;2.60;;;20.70;91.00;;;;;;5013643;28;20451;-71
2023/05/01 11:38:32;;;;;;;5.23;2.63;;;20.70;90.80;;;;;;5013330;28;20979;-71
2023/05/01 11:41:04;;;;;;;4.80;2.73;;;20.70;90.70;;;;;;5013269;28;20475;-71
2023/05/01 11:43:32;;;;;;;4.70;3.20;;;20.70;90.70;;;;;;5013475;28;20455;-71
2023/05/01 11:46:03;;;;;;;4.70;2.93;;;20.80;90.60;;;;;;5013339;28;20444;-71
2023/05/01 11:48:32;;;;;;;5.43;3.20;;;20.70;90.50;;;;;;5011850;28;20950;-71
2023/05/01 11:51:00;;;;;;;5.27;3.07;;;20.70;90.40;;;;;;5013174;28;20444;-71
2023/05/01 11:53:29;;;;;;;4.53;2.70;;;20.80;90.30;;;;;;5013079;28;20455;-72
2023/05/01 11:55:58;;;;;;;4.63;2.93;;;20.80;90.30;;;;;;5013193;28;20980;-72
2023/05/01 11:58:35;;;;;;;5.90;3.23;;;20.80;90.50;;;;;;5013104;28;20416;-72
2023/05/01 12:01:03;;;;;;;5.93;3.43;;;20.80;90.60;;;;;;5013204;28;20921;-71
2023/05/01 12:03:41;;;;;;;5.17;2.70;;;20.80;90.60;;;;;;5013170;28;20462;-72
2023/05/01 12:06:11;;;;;;;5.00;2.50;;;20.90;90.70;;;;;;5013296;28;20426;-71
2023/05/01 12:08:44;;;;;;;4.37;2.30;;;20.90;90.70;;;;;;5012949;28;20527;-72
2023/05/01 12:11:12;;;;;;;4.50;2.30;;;20.90;90.20;;;;;;5013170;28;20479;-72
2023/05/01 12:13:42;;;;;;;4.67;2.90;;;20.80;90.30;;;;;;5012949;28;20452;-71
2023/05/01 12:16:11;;;;;;;5.73;4.03;;;20.80;90.20;;;;;;5013379;28;20540;-72
2023/05/01 12:18:39;;;;;;;5.10;2.40;;;20.80;90.10;;;;;;5012777;28;20979;-72
2023/05/01 12:21:16;;;;;;;6.23;2.67;;;20.80;90.10;;;;;;5013411;28;20482;-71
2023/05/01 12:23:45;;;;;;;5.10;2.23;;;20.80;90.10;;;;;;5012802;28;20459;-72
2023/05/01 12:26:17;;;;;;;5.07;1.73;;;20.80;90.00;;;;;;5013206;28;20950;-72
2023/05/01 12:28:57;;;;;;;3.50;1.90;;;20.90;90.00;;;;;;5013094;28;20427;-72
2023/05/01 12:31:26;;;;;;;5.30;2.20;;;20.90;90.00;;;;;;5013319;28;20494;-71
2023/05/01 12:33:56;;;;;;;5.20;2.10;;;20.90;90.00;;;;;;5016401;28;20462;-72
2023/05/01 12:36:26;;;;;;;9.60;2.90;;;20.90;89.50;;;;;;5016981;28;20432;-72
2023/05/01 12:39:05;;;;;;;6.20;2.53;;;20.90;89.20;;;;;;5015179;28;20443;-72
2023/05/01 12:41:37;;;;;;;4.30;2.47;;;20.90;88.90;;;;;;5016275;28;20506;-72
2023/05/01 12:44:21;;;;;;;3.70;1.97;;;20.90;89.10;;;;;;5016498;28;20497;-72
2023/05/01 12:46:55;;;;;;;3.73;1.87;;;20.90;88.60;;;;;;5016656;28;20427;-72
2023/05/01 12:49:24;;;;;;;4.30;1.70;;;20.80;88.60;;;;;;5016415;28;20799;-72
2023/05/01 12:51:54;;;;;;;4.47;2.23;;;20.80;88.50;;;;;;5016255;28;20435;-72
2023/05/01 12:54:24;;;;;;;4.53;2.27;;;20.80;88.60;;;;;;5016377;28;20550;-72
2023/05/01 12:56:53;;;;;;;3.70;1.90;;;20.80;88.70;;;;;;5016170;28;20701;-72
2023/05/01 12:59:23;;;;;;;3.97;2.00;;;20.70;88.60;;;;;;5016277;28;20450;-71
2023/05/01 13:01:59;;;;;;;5.83;2.40;;;20.80;88.90;;;;;;5015985;28;20463;-71
2023/05/01 13:04:28;;;;;;;4.13;2.10;;;20.90;89.30;;;;;;5015961;28;20474;-72
2023/05/01 13:06:57;;;;;;;3.57;2.30;;;21.00;90.10;;;;;;5016036;28;20509;-72
2023/05/01 13:09:27;;;;;;;3.57;1.93;;;21.00;89.50;;;;;;5016038;28;20442;-71